createdAt,value
2018-06-25T00:02:07.284Z,99.90
2018-06-25T00:04:35.464Z,99.90
2018-06-25T00:07:03.664Z,99.90
2018-06-25T00:11:59.781Z,99.90
2018-06-25T00:14:28.019Z,99.90
2018-06-25T00:16:56.205Z,99.90
2018-06-25T00:19:24.396Z,99.90
2018-06-25T00:21:52.568Z,99.90
2018-06-25T00:24:20.753Z,99.90
2018-06-25T00:26:48.997Z,99.90
2018-06-25T00:29:17.192Z,99.90
2018-06-25T00:31:45.376Z,99.90
2018-06-25T00:34:13.588Z,99.90
2018-06-25T00:36:41.764Z,99.90
2018-06-25T00:39:11.152Z,99.90
2018-06-25T00:44:07.548Z,99.90
2018-06-25T00:46:35.725Z,99.90
2018-06-25T00:49:03.925Z,99.90
2018-06-25T00:51:32.140Z,99.90
2018-06-25T00:54:00.336Z,99.90
2018-06-25T00:56:28.594Z,99.90
2018-06-25T00:59:08.080Z,99.90
2018-06-25T01:01:36.305Z,99.90
2018-06-25T01:04:04.515Z,99.90
2018-06-25T01:06:32.757Z,99.90
2018-06-25T01:11:28.900Z,99.90
2018-06-25T01:13:57.104Z,99.90
2018-06-25T01:16:25.293Z,99.90
2018-06-25T01:18:53.522Z,99.90
2018-06-25T01:21:21.698Z,99.90
2018-06-25T01:23:49.884Z,99.90
2018-06-25T01:26:18.061Z,99.90
2018-06-25T01:28:46.265Z,99.90
2018-06-25T01:31:14.492Z,99.90
2018-06-25T01:33:42.700Z,99.90
2018-06-25T01:36:10.884Z,99.90
2018-06-25T01:38:39.136Z,99.90
2018-06-25T01:41:07.324Z,99.90
2018-06-25T01:43:35.496Z,99.90
2018-06-25T01:46:03.758Z,99.90
2018-06-25T01:48:31.948Z,99.90
2018-06-25T01:51:00.189Z,99.90
2018-06-25T01:55:56.333Z,99.90
2018-06-25T02:00:52.437Z,99.90
2018-06-25T02:03:20.649Z,99.90
2018-06-25T02:08:16.787Z,99.90
2018-06-25T02:13:12.924Z,99.90
2018-06-25T02:15:41.124Z,99.90
2018-06-25T02:18:09.333Z,99.90
2018-06-25T02:20:37.558Z,99.90
2018-06-25T02:25:33.814Z,99.90
2018-06-25T02:28:02.074Z,99.90
2018-06-25T02:30:30.288Z,99.90
2018-06-25T02:32:58.557Z,99.90
2018-06-25T02:35:26.712Z,99.90
2018-06-25T02:40:22.851Z,99.90
2018-06-25T02:45:18.994Z,99.90
2018-06-25T02:50:15.150Z,99.90
2018-06-25T02:52:43.328Z,99.90
2018-06-25T02:55:11.529Z,99.90
2018-06-25T02:57:39.703Z,99.90
2018-06-25T03:00:07.900Z,99.90
2018-06-25T03:02:36.138Z,99.90
2018-06-25T03:05:04.421Z,99.90
2018-06-25T03:07:32.612Z,99.90
2018-06-25T03:10:00.833Z,99.90
2018-06-25T03:12:29.050Z,99.90
2018-06-25T03:19:53.129Z,99.90
2018-06-25T03:24:49.281Z,99.90
2018-06-25T03:27:17.473Z,99.90
2018-06-25T03:29:45.735Z,99.90
2018-06-25T03:32:13.988Z,99.90
2018-06-25T03:37:10.131Z,99.90
2018-06-25T03:42:06.410Z,99.90
2018-06-25T03:44:34.654Z,99.90
2018-06-25T03:47:02.849Z,99.90
2018-06-25T03:49:31.042Z,99.90
2018-06-25T03:51:59.262Z,99.90
2018-06-25T03:54:27.477Z,99.90
2018-06-25T03:56:55.753Z,99.90
2018-06-25T03:59:23.943Z,99.90
2018-06-25T04:01:52.223Z,99.90
2018-06-25T04:04:20.575Z,99.90
2018-06-25T04:09:16.704Z,99.90
2018-06-25T04:11:44.888Z,99.90
2018-06-25T04:14:13.090Z,99.90
2018-06-25T04:16:41.300Z,99.90
2018-06-25T04:19:09.590Z,99.90
2018-06-25T04:21:38.243Z,99.90
2018-06-25T04:24:06.494Z,99.90
2018-06-25T04:26:34.773Z,99.90
2018-06-25T04:29:03.371Z,99.90
2018-06-25T04:31:31.686Z,99.90
2018-06-25T04:34:00.114Z,99.90
2018-06-25T04:36:28.518Z,99.90
2018-06-25T04:38:57.605Z,99.90
2018-06-25T04:41:25.867Z,99.90
2018-06-25T04:43:54.076Z,99.90
2018-06-25T04:46:22.389Z,99.90
2018-06-25T04:48:50.654Z,99.90
2018-06-25T04:51:18.865Z,99.90
2018-06-25T04:53:47.114Z,99.90
2018-06-25T04:58:43.433Z,99.90
2018-06-25T05:01:11.825Z,99.90
2018-06-25T05:03:40.042Z,99.90
2018-06-25T05:06:08.269Z,99.90
2018-06-25T05:08:36.535Z,99.90
2018-06-25T05:11:04.897Z,99.90
2018-06-25T05:13:33.121Z,99.90
2018-06-25T05:16:01.388Z,99.90
2018-06-25T05:18:29.581Z,99.90
2018-06-25T05:20:57.785Z,99.90
2018-06-25T05:23:25.965Z,99.90
2018-06-25T05:25:54.168Z,99.90
2018-06-25T05:28:22.369Z,99.90
2018-06-25T05:33:18.553Z,99.90
2018-06-25T05:35:46.776Z,99.90
2018-06-25T05:38:14.987Z,99.90
2018-06-25T05:40:43.242Z,99.90
2018-06-25T05:45:39.368Z,99.90
2018-06-25T05:48:07.565Z,99.90
2018-06-25T05:50:35.736Z,99.90
2018-06-25T05:55:31.982Z,99.90
2018-06-25T05:58:00.295Z,99.90
2018-06-25T06:00:28.616Z,99.90
2018-06-25T06:02:56.878Z,99.90
2018-06-25T06:05:25.154Z,99.90
2018-06-25T06:07:53.418Z,99.90
2018-06-25T06:10:21.657Z,99.90
2018-06-25T06:12:49.947Z,99.90
2018-06-25T06:15:18.205Z,99.90
2018-06-25T06:17:46.485Z,99.90
2018-06-25T06:20:14.888Z,99.90
2018-06-25T06:22:43.020Z,99.90
2018-06-25T06:25:11.289Z,99.90
2018-06-25T06:27:39.558Z,99.90
2018-06-25T06:30:07.806Z,99.90
2018-06-25T06:32:36.090Z,99.90
2018-06-25T06:35:04.397Z,99.90
2018-06-25T06:37:32.684Z,99.90
2018-06-25T06:40:00.980Z,99.90
2018-06-25T06:44:57.193Z,99.90
2018-06-25T06:47:25.457Z,99.90
2018-06-25T06:49:53.737Z,99.90
2018-06-25T06:52:22.012Z,99.90
2018-06-25T06:54:50.302Z,99.90
2018-06-25T06:57:18.595Z,99.90
2018-06-25T07:02:14.875Z,99.90
2018-06-25T07:04:43.137Z,99.90
2018-06-25T07:09:39.854Z,99.90
2018-06-25T07:12:08.146Z,99.90
2018-06-25T07:17:04.382Z,99.90
2018-06-25T07:19:32.601Z,99.90
2018-06-25T07:22:00.900Z,99.90
2018-06-25T07:24:29.196Z,99.90
2018-06-25T07:26:57.527Z,99.90
2018-06-25T07:29:25.767Z,99.90
2018-06-25T07:31:54.044Z,99.90
2018-06-25T07:36:50.306Z,99.90
2018-06-25T07:39:18.582Z,99.90
2018-06-25T07:41:46.920Z,99.90
2018-06-25T07:44:15.190Z,99.90
2018-06-25T07:46:43.481Z,99.90
2018-06-25T07:49:11.717Z,99.90
2018-06-25T07:51:39.982Z,99.90
2018-06-25T07:54:08.279Z,99.90
2018-06-25T07:56:36.509Z,99.90
2018-06-25T08:04:00.853Z,99.90
2018-06-25T08:06:29.111Z,99.90
2018-06-25T08:11:25.408Z,99.90
2018-06-25T08:13:53.685Z,99.90
2018-06-25T08:16:22.040Z,99.90
2018-06-25T08:18:50.185Z,99.90
2018-06-25T08:21:18.453Z,99.90
2018-06-25T08:26:14.698Z,99.90
2018-06-25T08:28:42.973Z,99.90
2018-06-25T08:33:39.220Z,99.90
2018-06-25T08:36:07.498Z,99.90
2018-06-25T08:41:03.746Z,99.90
2018-06-25T08:43:32.093Z,99.90
2018-06-25T08:46:00.358Z,99.90
2018-06-25T08:48:28.662Z,99.90
2018-06-25T08:50:56.897Z,99.90
2018-06-25T08:53:25.313Z,99.90
2018-06-25T08:55:53.971Z,99.90
2018-06-25T08:58:22.263Z,99.90
2018-06-25T09:00:50.546Z,99.90
2018-06-25T09:03:19.033Z,99.90
2018-06-25T09:05:47.111Z,99.90
2018-06-25T09:10:43.432Z,99.90
2018-06-25T09:13:11.699Z,99.90
2018-06-25T09:15:39.969Z,99.90
2018-06-25T09:18:08.237Z,99.90
2018-06-25T09:20:36.494Z,97.10
2018-06-25T09:23:04.842Z,95.30
2018-06-25T09:25:33.117Z,95.00
2018-06-25T09:28:05.358Z,90.20
2018-06-25T09:30:33.622Z,89.30
2018-06-25T09:33:02.304Z,90.00
2018-06-25T09:35:30.528Z,91.10
2018-06-25T09:37:58.769Z,94.30
2018-06-25T09:40:27.047Z,92.20
2018-06-25T09:42:55.325Z,94.70
2018-06-25T09:45:23.576Z,96.10
2018-06-25T09:47:51.834Z,99.40
2018-06-25T09:50:20.130Z,99.90
2018-06-25T09:52:48.437Z,99.90
2018-06-25T09:55:16.733Z,99.50
2018-06-25T09:57:44.995Z,99.10
2018-06-25T10:00:17.538Z,98.60
2018-06-25T10:02:45.778Z,97.80
2018-06-25T10:07:42.108Z,95.40
2018-06-25T10:10:10.374Z,97.40
2018-06-25T10:12:38.611Z,97.60
2018-06-25T10:15:06.889Z,95.70
2018-06-25T10:17:35.153Z,95.10
2018-06-25T10:20:03.394Z,91.80
2018-06-25T10:22:31.597Z,85.60
2018-06-25T10:24:59.893Z,85.40
2018-06-25T10:27:28.090Z,88.80
2018-06-25T10:29:56.353Z,83.80
2018-06-25T10:32:24.584Z,73.00
2018-06-25T10:34:52.963Z,73.70
2018-06-25T10:37:21.102Z,84.50
2018-06-25T10:39:49.425Z,80.70
2018-06-25T10:42:17.863Z,79.70
2018-06-25T10:49:42.114Z,79.70
2018-06-25T10:52:10.554Z,80.20
2018-06-25T10:54:38.845Z,79.60
2018-06-25T10:57:07.085Z,80.50
2018-06-25T10:59:35.460Z,84.10
2018-06-25T11:02:03.621Z,89.80
2018-06-25T11:04:31.950Z,90.40
2018-06-25T11:07:00.219Z,88.00
2018-06-25T11:09:28.441Z,91.70
2018-06-25T11:11:56.688Z,90.40
2018-06-25T11:14:24.940Z,88.90
2018-06-25T11:16:53.186Z,90.60
2018-06-25T11:19:21.429Z,89.70
2018-06-25T11:21:49.683Z,90.50
2018-06-25T11:24:18.013Z,88.20
2018-06-25T11:26:46.368Z,82.10
2018-06-25T11:29:14.611Z,76.50
2018-06-25T11:31:42.908Z,78.40
2018-06-25T11:34:11.165Z,69.70
2018-06-25T11:36:39.430Z,72.80
2018-06-25T11:39:09.204Z,77.20
2018-06-25T11:41:37.470Z,75.40
2018-06-25T11:44:05.800Z,76.10
2018-06-25T11:46:34.206Z,60.10
2018-06-25T11:51:30.602Z,59.70
2018-06-25T11:53:58.893Z,60.40
2018-06-25T11:56:27.162Z,62.40
2018-06-25T11:58:55.337Z,63.60
2018-06-25T12:01:23.502Z,67.50
2018-06-25T12:03:51.673Z,70.40
2018-06-25T12:06:19.858Z,68.90
2018-06-25T12:08:48.053Z,68.30
2018-06-25T12:11:16.219Z,66.30
2018-06-25T12:13:44.446Z,67.60
2018-06-25T12:16:12.649Z,69.70
2018-06-25T12:18:40.828Z,66.80
2018-06-25T12:21:09.020Z,62.40
2018-06-25T12:23:37.182Z,64.10
2018-06-25T12:26:05.372Z,62.40
2018-06-25T12:28:33.542Z,60.30
2018-06-25T12:31:01.755Z,58.00
2018-06-25T12:35:57.866Z,62.10
2018-06-25T12:38:26.025Z,62.90
2018-06-25T12:40:54.205Z,64.00
2018-06-25T12:43:22.378Z,64.50
2018-06-25T12:45:50.569Z,62.80
2018-06-25T12:48:18.795Z,59.80
2018-06-25T12:50:46.913Z,60.80
2018-06-25T12:53:15.072Z,56.80
2018-06-25T12:55:43.260Z,56.10
2018-06-25T12:58:11.434Z,56.70
2018-06-25T13:00:39.612Z,55.40
2018-06-25T13:03:07.820Z,56.20
2018-06-25T13:05:35.973Z,57.00
2018-06-25T13:10:32.082Z,61.90
2018-06-25T13:13:00.249Z,60.70
2018-06-25T13:15:28.442Z,59.60
2018-06-25T13:17:56.584Z,58.70
2018-06-25T13:20:24.764Z,54.00
2018-06-25T13:22:52.930Z,53.00
2018-06-25T13:25:21.112Z,52.80
2018-06-25T13:27:49.278Z,55.00
2018-06-25T13:30:17.485Z,53.90
2018-06-25T13:32:45.670Z,54.60
2018-06-25T13:35:13.914Z,57.50
2018-06-25T13:37:42.076Z,54.60
2018-06-25T13:40:10.273Z,52.30
2018-06-25T13:42:38.433Z,51.30
2018-06-25T13:45:06.750Z,54.80
2018-06-25T13:47:34.962Z,54.30
2018-06-25T13:50:03.156Z,58.30
2018-06-25T13:52:31.333Z,57.00
2018-06-25T13:54:59.505Z,57.40
2018-06-25T13:57:27.681Z,55.80
2018-06-25T13:59:55.852Z,56.90
2018-06-25T14:02:24.023Z,57.50
2018-06-25T14:04:52.213Z,59.00
2018-06-25T14:07:20.440Z,58.90
2018-06-25T14:12:16.534Z,58.10
2018-06-25T14:14:44.681Z,58.10
2018-06-25T14:17:12.885Z,57.20
2018-06-25T14:19:41.209Z,57.50
2018-06-25T14:22:09.441Z,56.50
2018-06-25T14:24:42.936Z,57.50
2018-06-25T14:27:12.064Z,59.50
2018-06-25T14:29:40.262Z,59.30
2018-06-25T14:32:14.748Z,58.60
2018-06-25T14:34:47.512Z,62.00
2018-06-25T14:37:15.855Z,67.00
2018-06-25T14:39:44.057Z,70.10
2018-06-25T14:42:12.278Z,69.30
2018-06-25T14:47:08.394Z,67.30
2018-06-25T14:49:36.543Z,68.00
2018-06-25T14:52:04.704Z,65.90
2018-06-25T14:54:32.877Z,63.20
2018-06-25T14:57:01.058Z,61.80
2018-06-25T14:59:29.218Z,61.70
2018-06-25T15:01:57.397Z,59.70
2018-06-25T15:04:25.552Z,59.90
2018-06-25T15:09:21.645Z,57.20
2018-06-25T15:11:49.832Z,60.00
2018-06-25T15:14:18.004Z,57.50
2018-06-25T15:16:46.205Z,58.50
2018-06-25T15:19:14.380Z,59.70
2018-06-25T15:24:10.576Z,64.10
2018-06-25T15:26:38.829Z,63.90
2018-06-25T15:29:07.037Z,62.60
2018-06-25T15:31:35.228Z,62.20
2018-06-25T15:34:03.430Z,61.60
2018-06-25T15:36:31.594Z,61.00
2018-06-25T15:41:27.664Z,59.30
2018-06-25T15:43:55.812Z,59.00
2018-06-25T15:46:23.989Z,59.70
2018-06-25T15:48:52.277Z,59.70
2018-06-25T15:51:20.558Z,59.80
2018-06-25T15:53:48.814Z,59.40
2018-06-25T15:56:16.902Z,59.70
2018-06-25T15:58:45.099Z,59.70
2018-06-25T16:01:13.254Z,59.00
2018-06-25T16:03:41.457Z,59.20
2018-06-25T16:06:09.608Z,57.20
2018-06-25T16:08:37.789Z,59.50
2018-06-25T16:11:05.941Z,58.90
2018-06-25T16:13:34.117Z,58.70
2018-06-25T16:16:02.290Z,58.20
2018-06-25T16:18:30.464Z,58.50
2018-06-25T16:20:58.619Z,59.30
2018-06-25T16:23:26.808Z,58.80
2018-06-25T16:28:22.897Z,55.70
2018-06-25T16:30:51.044Z,57.10
2018-06-25T16:33:19.241Z,57.40
2018-06-25T16:35:47.769Z,57.20
2018-06-25T16:40:44.021Z,55.70
2018-06-25T16:43:12.197Z,55.00
2018-06-25T16:50:36.281Z,56.00
2018-06-25T16:53:04.449Z,56.00
2018-06-25T16:55:32.613Z,56.30
2018-06-25T16:58:00.772Z,56.30
2018-06-25T17:00:28.930Z,56.90
2018-06-25T17:02:57.089Z,57.00
2018-06-25T17:05:25.262Z,56.80
2018-06-25T17:07:53.480Z,57.40
2018-06-25T17:10:21.632Z,58.50
2018-06-25T17:12:49.809Z,58.90
2018-06-25T17:15:17.981Z,58.70
2018-06-25T17:17:46.152Z,58.10
2018-06-25T17:20:14.299Z,58.80
2018-06-25T17:22:42.461Z,58.60
2018-06-25T17:25:10.601Z,58.00
2018-06-25T17:27:38.756Z,58.90
2018-06-25T17:30:07.217Z,59.40
2018-06-25T17:32:35.376Z,60.50
2018-06-25T17:35:03.561Z,60.60
2018-06-25T17:37:31.737Z,60.90
2018-06-25T17:39:59.892Z,61.50
2018-06-25T17:42:28.064Z,62.30
2018-06-25T17:47:24.136Z,63.60
2018-06-25T17:49:52.313Z,64.80
2018-06-25T17:52:20.471Z,65.10
2018-06-25T17:54:48.644Z,65.90
2018-06-25T17:57:16.796Z,65.90
2018-06-25T18:02:12.880Z,68.50
2018-06-25T18:04:41.034Z,68.30
2018-06-25T18:07:09.189Z,69.50
2018-06-25T18:12:05.261Z,68.50
2018-06-25T18:14:33.453Z,69.80
2018-06-25T18:17:01.636Z,70.20
2018-06-25T18:19:29.821Z,71.70
2018-06-25T18:21:57.992Z,72.60
2018-06-25T18:24:26.169Z,74.10
2018-06-25T18:26:54.426Z,76.00
2018-06-25T18:29:22.595Z,77.90
2018-06-25T18:31:50.768Z,79.30
2018-06-25T18:34:18.939Z,81.10
2018-06-25T18:36:47.068Z,83.50
2018-06-25T18:41:43.918Z,89.40
2018-06-25T18:44:12.104Z,91.20
2018-06-25T18:49:08.341Z,93.00
2018-06-25T18:51:36.493Z,94.00
2018-06-25T18:54:04.704Z,94.90
2018-06-25T18:56:32.853Z,96.00
2018-06-25T18:59:01.015Z,97.30
2018-06-25T19:01:29.149Z,98.60
2018-06-25T19:03:57.337Z,99.20
2018-06-25T19:06:25.481Z,99.90
2018-06-25T19:08:53.721Z,99.90
2018-06-25T19:11:21.961Z,99.90
2018-06-25T19:13:50.120Z,99.90
2018-06-25T19:16:18.282Z,99.90
2018-06-25T19:18:46.444Z,99.90
2018-06-25T19:23:42.623Z,99.90
2018-06-25T19:26:10.713Z,99.90
2018-06-25T19:28:38.883Z,99.90
2018-06-25T19:31:07.211Z,99.90
2018-06-25T19:33:35.383Z,99.90
2018-06-25T19:36:03.517Z,99.90
2018-06-25T19:38:31.810Z,99.90
2018-06-25T19:40:59.970Z,99.90
2018-06-25T19:43:28.125Z,99.90
2018-06-25T19:45:56.277Z,99.90
2018-06-25T19:48:24.729Z,99.90
2018-06-25T19:53:20.871Z,99.90
2018-06-25T19:55:49.061Z,99.90
2018-06-25T19:58:17.217Z,99.90
2018-06-25T20:00:45.393Z,99.90
2018-06-25T20:03:13.532Z,99.90
2018-06-25T20:05:41.716Z,99.90
2018-06-25T20:08:09.879Z,99.90
2018-06-25T20:10:38.044Z,99.90
2018-06-25T20:13:06.185Z,99.90
2018-06-25T20:15:34.362Z,99.90
2018-06-25T20:20:30.455Z,99.90
2018-06-25T20:22:58.631Z,99.90
2018-06-25T20:25:26.806Z,99.90
2018-06-25T20:27:54.945Z,99.90
2018-06-25T20:30:23.108Z,99.90
2018-06-25T20:32:51.260Z,99.90
2018-06-25T20:35:19.430Z,99.90
2018-06-25T20:37:47.577Z,99.90
2018-06-25T20:40:15.729Z,99.90
2018-06-25T20:42:43.898Z,99.90
2018-06-25T20:45:12.057Z,99.90
2018-06-25T20:47:40.218Z,99.90
2018-06-25T20:50:08.392Z,99.90
2018-06-25T20:52:36.536Z,99.90
2018-06-25T20:57:32.616Z,99.90
2018-06-25T21:00:00.876Z,99.90
2018-06-25T21:02:29.020Z,99.90
2018-06-25T21:04:57.209Z,99.90
2018-06-25T21:07:25.360Z,99.90
2018-06-25T21:09:53.524Z,99.90
2018-06-25T21:12:21.684Z,99.90
2018-06-25T21:14:50.056Z,99.90
2018-06-25T21:17:18.211Z,99.90
2018-06-25T21:19:46.373Z,99.90
2018-06-25T21:22:14.542Z,99.90
2018-06-25T21:24:42.709Z,99.90
2018-06-25T21:27:11.163Z,99.90
2018-06-25T21:29:39.326Z,99.90
2018-06-25T21:32:07.664Z,99.90
2018-06-25T21:34:35.819Z,99.90
2018-06-25T21:37:04.008Z,99.90
2018-06-25T21:39:32.161Z,99.90
2018-06-25T21:44:28.440Z,99.90
2018-06-25T21:46:57.037Z,99.90
2018-06-25T21:49:25.183Z,99.90
2018-06-25T21:51:53.344Z,99.90
2018-06-25T21:54:21.553Z,99.90
2018-06-25T21:56:49.721Z,99.90
2018-06-25T21:59:17.855Z,99.90
2018-06-25T22:04:17.991Z,99.90
2018-06-25T22:09:14.040Z,99.90
2018-06-25T22:11:42.211Z,99.90
2018-06-25T22:14:10.886Z,99.90
2018-06-25T22:16:39.105Z,99.90
2018-06-25T22:19:08.607Z,99.90
2018-06-25T22:21:36.844Z,99.90
2018-06-25T22:26:33.201Z,99.90
2018-06-25T22:31:29.274Z,99.90
2018-06-25T22:33:57.455Z,99.90
2018-06-25T22:36:26.752Z,99.90
2018-06-25T22:38:54.964Z,99.90
2018-06-25T22:41:23.274Z,99.90
2018-06-25T22:46:19.417Z,99.90
2018-06-25T22:51:15.529Z,99.90
2018-06-25T22:53:43.717Z,99.90
2018-06-25T22:56:11.889Z,99.90
2018-06-25T22:58:40.062Z,99.90
2018-06-25T23:01:08.234Z,99.90
2018-06-25T23:03:36.449Z,99.90
2018-06-25T23:06:04.572Z,99.90
2018-06-25T23:08:32.742Z,99.90
2018-06-25T23:11:00.924Z,99.90
2018-06-25T23:13:29.084Z,99.90
2018-06-25T23:15:57.249Z,99.90
2018-06-25T23:18:25.404Z,99.90
2018-06-25T23:20:53.573Z,99.90
2018-06-25T23:23:24.733Z,99.90
2018-06-25T23:25:52.878Z,99.90
2018-06-25T23:28:21.101Z,99.90
2018-06-25T23:30:49.197Z,99.90
2018-06-25T23:33:17.360Z,99.90
2018-06-25T23:35:45.524Z,99.90
2018-06-25T23:38:13.741Z,99.90
2018-06-25T23:40:41.888Z,99.90
2018-06-25T23:43:10.049Z,99.90
2018-06-25T23:45:38.222Z,99.90
2018-06-25T23:48:06.397Z,99.90
2018-06-25T23:50:34.559Z,99.90
2018-06-25T23:53:02.742Z,99.90
2018-06-25T23:55:30.905Z,99.90
2018-06-25T23:57:59.080Z,99.90
